Naguabo, PR (00718)

7:26 PM AST on August 22, 2014 (GMT -0400)
Manejo de Emergencias | Change Station
CLOSE
Current Station
Personal Weather Station
Location: Ceiba, PR
Elevation: 95 ft
Nearby Weather Stations

Elev 95 ft 18.26 °N, 65.65 °W | Updated 7 minutes ago

Rain
Rain
76.6 °F
Feels Like 77 °F
N
3.0
Wind Variable Wind from SW
Gusts 7.0 mph

Today
High -- | Low -- °F
--% Chance of Precip.
Yesterday
High -- | Low -- °F
Precip. -- in
6:06 AM 6:44 PM
Waning Crescent, 6% visible
Pressure 29.89 in
Visibility 10.0 miles
Clouds Mostly Cloudy 1200 ft
Heat Index 77 °F
Dew Point 75 °F
Humidity 95%
Rainfall -999.00 in
Snow Depth Not available.
UV 0 out of 12
Pollen Not available.
Air Quality Not available.
Flu Activity Not available.
SPECI TJNR 222303Z AUTO 17005KT 10SM BKN012 25/24 A2989 RMK AO2 T02500239 $

More Conditions Fewer Conditions

Pressure 29.89 in
Visibility 10.0 miles
Clouds Mostly Cloudy 1200 ft
Heat Index 77 °F
Dew Point 75 °F
Humidity 95%
Rainfall -999.00 in
Snow Depth Not available.
UV 0 out of 12
Pollen Not available.
Air Quality Not available.
Flu Activity Not available.
SPECI TJNR 222303Z AUTO 17005KT 10SM BKN012 25/24 A2989 RMK AO2 T02500239 $

More Conditions Fewer Conditions

10-Day Weather Forecast

Almanac

Astronomy

Aug. 22, 2014 Rise Set
Actual Time 6:06 AM AST 6:44 PM AST
Civil Twilight 5:44 AM AST 7:07 PM AST
Nautical Twilight 5:17 AM AST 7:33 PM AST
Astronomical Twilight 4:51 AM AST 7:59 PM AST
Moon 3:36 AM AST 4:42 PM AST
Length of Visible Light 13h 22m
Length of Day
12h 38m
Tomorrow will be 0m 56s shorter.
Waning Crescent, 6% of the Moon is Illuminated
Today
Waning Crescent
Aug 25
New
Sep 2
First Quarter
Sep 8
Full
Sep 15
Last Quarter

Community

WunderPhotos

Upload Photos

1,746,306 photos uploaded!

WunderBlogs® & News

By Dr. Jeff Masters
Director of Meteorology, Weather Underground
By Kari Strenfel
Meteorologist, Weather Underground
By Christopher C. Burt
Weather Historian, Weather Underground
August 22, 2014
August 22, 2014
August 22, 2014

Nearby

Snow Depth

Station Depth Elevation
No new snow has been reported.

Earthquake Activity

City Distance Mag. Time & Date
No recent earthquake activity has been reported nearby.
Minimum magnitude displayed is 2.5.

Coastal Water Temperatures

Place Temperature
Yabucoa Harbor, PR 81.0 °F
Esperanza, PR 82.9 °F
Charlotte Amalie, VI 84.9 °F

Nearby Weather Stations